sensor_id;sensor_type;location;lat;lon;timestamp;P1;durP1;ratioP1;P2;durP2;ratioP2
11996;SDS011;6058;48.704;9.474;2023-12-04T00:00:12;15.73;;;8.70;;
11996;SDS011;6058;48.704;9.474;2023-12-04T00:02:40;11.50;;;7.33;;
11996;SDS011;6058;48.704;9.474;2023-12-04T00:05:09;11.37;;;7.80;;
11996;SDS011;6058;48.704;9.474;2023-12-04T00:07:36;14.00;;;8.70;;
11996;SDS011;6058;48.704;9.474;2023-12-04T00:10:03;16.63;;;8.50;;
11996;SDS011;6058;48.704;9.474;2023-12-04T00:12:31;12.73;;;8.00;;
11996;SDS011;6058;48.704;9.474;2023-12-04T00:14:58;14.33;;;7.67;;
11996;SDS011;6058;48.704;9.474;2023-12-04T00:17:25;15.33;;;8.07;;
11996;SDS011;6058;48.704;9.474;2023-12-04T00:19:52;16.23;;;8.87;;
11996;SDS011;6058;48.704;9.474;2023-12-04T00:22:21;12.93;;;7.60;;
11996;SDS011;6058;48.704;9.474;2023-12-04T00:24:49;16.17;;;8.43;;
11996;SDS011;6058;48.704;9.474;2023-12-04T00:27:17;13.83;;;7.83;;
11996;SDS011;6058;48.704;9.474;2023-12-04T00:29:44;16.53;;;8.67;;
11996;SDS011;6058;48.704;9.474;2023-12-04T00:32:11;13.43;;;7.67;;
11996;SDS011;6058;48.704;9.474;2023-12-04T00:34:38;14.27;;;7.33;;
11996;SDS011;6058;48.704;9.474;2023-12-04T00:37:06;13.43;;;8.40;;
11996;SDS011;6058;48.704;9.474;2023-12-04T00:39:34;12.50;;;7.63;;
11996;SDS011;6058;48.704;9.474;2023-12-04T00:42:02;10.40;;;6.87;;
11996;SDS011;6058;48.704;9.474;2023-12-04T00:44:29;13.70;;;7.60;;
11996;SDS011;6058;48.704;9.474;2023-12-04T00:46:56;13.90;;;7.77;;
11996;SDS011;6058;48.704;9.474;2023-12-04T00:49:23;12.77;;;7.27;;
11996;SDS011;6058;48.704;9.474;2023-12-04T00:51:51;11.70;;;7.07;;
11996;SDS011;6058;48.704;9.474;2023-12-04T00:54:18;11.13;;;6.87;;
11996;SDS011;6058;48.704;9.474;2023-12-04T00:56:46;9.13;;;6.50;;
11996;SDS011;6058;48.704;9.474;2023-12-04T00:59:14;15.20;;;8.47;;
11996;SDS011;6058;48.704;9.474;2023-12-04T01:01:41;13.37;;;6.90;;
11996;SDS011;6058;48.704;9.474;2023-12-04T01:04:08;12.60;;;7.57;;
11996;SDS011;6058;48.704;9.474;2023-12-04T01:06:35;14.13;;;7.57;;
11996;SDS011;6058;48.704;9.474;2023-12-04T01:09:02;13.90;;;7.50;;
11996;SDS011;6058;48.704;9.474;2023-12-04T01:11:30;12.17;;;7.57;;
11996;SDS011;6058;48.704;9.474;2023-12-04T01:13:58;11.43;;;6.70;;
11996;SDS011;6058;48.704;9.474;2023-12-04T01:16:25;11.00;;;6.23;;
11996;SDS011;6058;48.704;9.474;2023-12-04T01:18:53;10.37;;;6.43;;
11996;SDS011;6058;48.704;9.474;2023-12-04T01:21:21;9.63;;;6.60;;
11996;SDS011;6058;48.704;9.474;2023-12-04T01:23:48;11.23;;;6.97;;
11996;SDS011;6058;48.704;9.474;2023-12-04T01:26:15;10.37;;;6.73;;
11996;SDS011;6058;48.704;9.474;2023-12-04T01:28:42;10.07;;;6.17;;
11996;SDS011;6058;48.704;9.474;2023-12-04T01:31:11;11.60;;;6.63;;
11996;SDS011;6058;48.704;9.474;2023-12-04T01:33:38;13.20;;;6.90;;
11996;SDS011;6058;48.704;9.474;2023-12-04T01:36:06;10.77;;;5.90;;
11996;SDS011;6058;48.704;9.474;2023-12-04T01:38:33;8.80;;;5.27;;
11996;SDS011;6058;48.704;9.474;2023-12-04T01:41:00;12.73;;;6.87;;
11996;SDS011;6058;48.704;9.474;2023-12-04T01:43:27;9.87;;;6.27;;
11996;SDS011;6058;48.704;9.474;2023-12-04T01:45:55;8.47;;;5.43;;
11996;SDS011;6058;48.704;9.474;2023-12-04T01:48:24;10.97;;;7.10;;
11996;SDS011;6058;48.704;9.474;2023-12-04T01:50:51;10.87;;;7.43;;
11996;SDS011;6058;48.704;9.474;2023-12-04T01:53:19;9.50;;;5.70;;
11996;SDS011;6058;48.704;9.474;2023-12-04T01:55:46;11.87;;;7.37;;
11996;SDS011;6058;48.704;9.474;2023-12-04T01:58:13;11.23;;;6.37;;
11996;SDS011;6058;48.704;9.474;2023-12-04T02:00:41;9.33;;;6.23;;
11996;SDS011;6058;48.704;9.474;2023-12-04T02:03:08;10.00;;;5.63;;
11996;SDS011;6058;48.704;9.474;2023-12-04T02:05:37;9.70;;;5.73;;
11996;SDS011;6058;48.704;9.474;2023-12-04T02:08:05;10.97;;;6.47;;
11996;SDS011;6058;48.704;9.474;2023-12-04T02:10:32;9.83;;;5.50;;
11996;SDS011;6058;48.704;9.474;2023-12-04T02:13:00;12.60;;;6.57;;
11996;SDS011;6058;48.704;9.474;2023-12-04T02:15:27;9.77;;;6.53;;
11996;SDS011;6058;48.704;9.474;2023-12-04T02:17:54;10.50;;;5.67;;
11996;SDS011;6058;48.704;9.474;2023-12-04T02:20:30;8.60;;;5.73;;
11996;SDS011;6058;48.704;9.474;2023-12-04T02:22:58;11.07;;;7.20;;
11996;SDS011;6058;48.704;9.474;2023-12-04T02:25:27;11.00;;;6.57;;
11996;SDS011;6058;48.704;9.474;2023-12-04T02:27:56;10.60;;;6.57;;
11996;SDS011;6058;48.704;9.474;2023-12-04T02:30:23;10.03;;;5.47;;
11996;SDS011;6058;48.704;9.474;2023-12-04T02:32:51;10.07;;;6.50;;
11996;SDS011;6058;48.704;9.474;2023-12-04T02:35:19;10.63;;;6.67;;
11996;SDS011;6058;48.704;9.474;2023-12-04T02:37:47;10.60;;;6.60;;
11996;SDS011;6058;48.704;9.474;2023-12-04T02:40:15;7.27;;;5.30;;
11996;SDS011;6058;48.704;9.474;2023-12-04T02:42:44;11.43;;;5.70;;
11996;SDS011;6058;48.704;9.474;2023-12-04T02:45:11;12.90;;;6.20;;
11996;SDS011;6058;48.704;9.474;2023-12-04T02:47:38;12.37;;;6.70;;
11996;SDS011;6058;48.704;9.474;2023-12-04T02:50:06;12.43;;;7.30;;
11996;SDS011;6058;48.704;9.474;2023-12-04T02:52:33;11.63;;;6.47;;
11996;SDS011;6058;48.704;9.474;2023-12-04T02:55:01;11.87;;;6.33;;
11996;SDS011;6058;48.704;9.474;2023-12-04T02:57:28;14.50;;;6.77;;
11996;SDS011;6058;48.704;9.474;2023-12-04T02:59:57;12.43;;;6.10;;
11996;SDS011;6058;48.704;9.474;2023-12-04T03:02:24;11.90;;;6.63;;
11996;SDS011;6058;48.704;9.474;2023-12-04T03:04:51;10.57;;;6.10;;
11996;SDS011;6058;48.704;9.474;2023-12-04T03:07:18;10.77;;;6.00;;
11996;SDS011;6058;48.704;9.474;2023-12-04T03:09:46;11.13;;;6.50;;
11996;SDS011;6058;48.704;9.474;2023-12-04T03:12:13;11.00;;;5.97;;
11996;SDS011;6058;48.704;9.474;2023-12-04T03:14:40;12.30;;;5.80;;
11996;SDS011;6058;48.704;9.474;2023-12-04T03:17:09;8.63;;;5.20;;
11996;SDS011;6058;48.704;9.474;2023-12-04T03:19:36;10.90;;;5.73;;
11996;SDS011;6058;48.704;9.474;2023-12-04T03:22:04;10.73;;;6.30;;
11996;SDS011;6058;48.704;9.474;2023-12-04T03:24:31;8.57;;;5.87;;
11996;SDS011;6058;48.704;9.474;2023-12-04T03:26:58;12.37;;;6.13;;
11996;SDS011;6058;48.704;9.474;2023-12-04T03:29:25;11.60;;;6.57;;
11996;SDS011;6058;48.704;9.474;2023-12-04T03:31:52;9.73;;;6.10;;
11996;SDS011;6058;48.704;9.474;2023-12-04T03:34:21;9.60;;;6.67;;
11996;SDS011;6058;48.704;9.474;2023-12-04T03:36:48;13.83;;;7.03;;
11996;SDS011;6058;48.704;9.474;2023-12-04T03:39:15;7.40;;;5.50;;
11996;SDS011;6058;48.704;9.474;2023-12-04T03:41:43;11.83;;;6.63;;
11996;SDS011;6058;48.704;9.474;2023-12-04T03:44:10;11.17;;;6.40;;
11996;SDS011;6058;48.704;9.474;2023-12-04T03:46:37;8.57;;;5.67;;
11996;SDS011;6058;48.704;9.474;2023-12-04T03:49:04;8.10;;;5.60;;
11996;SDS011;6058;48.704;9.474;2023-12-04T03:51:33;9.00;;;4.50;;
11996;SDS011;6058;48.704;9.474;2023-12-04T03:54:00;9.83;;;5.37;;
11996;SDS011;6058;48.704;9.474;2023-12-04T03:56:28;9.00;;;5.07;;
11996;SDS011;6058;48.704;9.474;2023-12-04T03:58:55;8.47;;;5.37;;
11996;SDS011;6058;48.704;9.474;2023-12-04T04:01:22;7.37;;;4.13;;
11996;SDS011;6058;48.704;9.474;2023-12-04T04:03:49;10.27;;;5.77;;
11996;SDS011;6058;48.704;9.474;2023-12-04T04:06:17;8.97;;;6.17;;
11996;SDS011;6058;48.704;9.474;2023-12-04T04:08:45;8.73;;;5.77;;
11996;SDS011;6058;48.704;9.474;2023-12-04T04:11:12;9.67;;;6.23;;
11996;SDS011;6058;48.704;9.474;2023-12-04T04:13:39;10.37;;;5.33;;
11996;SDS011;6058;48.704;9.474;2023-12-04T04:16:07;8.77;;;5.30;;
11996;SDS011;6058;48.704;9.474;2023-12-04T04:18:34;9.17;;;5.33;;
11996;SDS011;6058;48.704;9.474;2023-12-04T04:21:01;8.87;;;6.43;;
11996;SDS011;6058;48.704;9.474;2023-12-04T04:23:29;10.83;;;6.23;;
11996;SDS011;6058;48.704;9.474;2023-12-04T04:25:57;7.90;;;4.37;;
11996;SDS011;6058;48.704;9.474;2023-12-04T04:28:24;5.60;;;4.03;;
11996;SDS011;6058;48.704;9.474;2023-12-04T04:30:52;6.87;;;5.53;;
11996;SDS011;6058;48.704;9.474;2023-12-04T04:33:19;9.97;;;5.80;;
11996;SDS011;6058;48.704;9.474;2023-12-04T04:35:46;9.03;;;5.63;;
11996;SDS011;6058;48.704;9.474;2023-12-04T04:38:13;9.83;;;6.10;;
11996;SDS011;6058;48.704;9.474;2023-12-04T04:40:40;8.43;;;5.37;;
11996;SDS011;6058;48.704;9.474;2023-12-04T04:43:10;7.67;;;5.67;;
11996;SDS011;6058;48.704;9.474;2023-12-04T04:45:38;7.47;;;5.37;;
11996;SDS011;6058;48.704;9.474;2023-12-04T04:48:05;9.33;;;5.77;;
11996;SDS011;6058;48.704;9.474;2023-12-04T04:50:32;7.67;;;5.50;;
11996;SDS011;6058;48.704;9.474;2023-12-04T04:52:59;9.23;;;5.37;;
11996;SDS011;6058;48.704;9.474;2023-12-04T04:55:27;10.97;;;5.93;;
11996;SDS011;6058;48.704;9.474;2023-12-04T04:57:55;9.33;;;6.03;;
11996;SDS011;6058;48.704;9.474;2023-12-04T05:00:24;9.40;;;6.20;;
11996;SDS011;6058;48.704;9.474;2023-12-04T05:02:51;10.23;;;6.70;;
11996;SDS011;6058;48.704;9.474;2023-12-04T05:05:18;8.10;;;5.27;;
11996;SDS011;6058;48.704;9.474;2023-12-04T05:07:45;8.73;;;5.80;;
11996;SDS011;6058;48.704;9.474;2023-12-04T05:10:12;8.10;;;5.10;;
11996;SDS011;6058;48.704;9.474;2023-12-04T05:12:39;11.20;;;6.23;;
11996;SDS011;6058;48.704;9.474;2023-12-04T05:15:07;8.70;;;5.13;;
11996;SDS011;6058;48.704;9.474;2023-12-04T05:17:35;8.87;;;6.90;;
11996;SDS011;6058;48.704;9.474;2023-12-04T05:20:03;8.70;;;4.97;;
11996;SDS011;6058;48.704;9.474;2023-12-04T05:22:30;8.93;;;5.97;;
11996;SDS011;6058;48.704;9.474;2023-12-04T05:24:57;9.17;;;5.60;;
11996;SDS011;6058;48.704;9.474;2023-12-04T05:27:24;8.10;;;5.27;;
11996;SDS011;6058;48.704;9.474;2023-12-04T05:29:52;7.67;;;5.63;;
11996;SDS011;6058;48.704;9.474;2023-12-04T05:32:19;7.67;;;5.30;;
11996;SDS011;6058;48.704;9.474;2023-12-04T05:34:47;9.93;;;5.20;;
11996;SDS011;6058;48.704;9.474;2023-12-04T05:37:14;7.60;;;5.03;;
11996;SDS011;6058;48.704;9.474;2023-12-04T05:39:42;7.70;;;5.20;;
11996;SDS011;6058;48.704;9.474;2023-12-04T05:42:09;8.20;;;4.83;;
11996;SDS011;6058;48.704;9.474;2023-12-04T05:44:36;8.57;;;5.57;;
11996;SDS011;6058;48.704;9.474;2023-12-04T05:47:03;10.43;;;6.27;;
11996;SDS011;6058;48.704;9.474;2023-12-04T05:49:33;9.97;;;6.10;;
11996;SDS011;6058;48.704;9.474;2023-12-04T05:52:01;10.07;;;6.43;;
11996;SDS011;6058;48.704;9.474;2023-12-04T05:54:28;10.33;;;6.37;;
11996;SDS011;6058;48.704;9.474;2023-12-04T05:56:56;10.30;;;6.03;;
11996;SDS011;6058;48.704;9.474;2023-12-04T05:59:23;9.97;;;5.60;;
11996;SDS011;6058;48.704;9.474;2023-12-04T06:01:50;10.97;;;6.30;;
11996;SDS011;6058;48.704;9.474;2023-12-04T06:04:17;9.33;;;5.73;;
11996;SDS011;6058;48.704;9.474;2023-12-04T06:06:44;9.17;;;5.80;;
11996;SDS011;6058;48.704;9.474;2023-12-04T06:09:13;8.60;;;5.83;;
11996;SDS011;6058;48.704;9.474;2023-12-04T06:11:41;12.63;;;6.47;;
11996;SDS011;6058;48.704;9.474;2023-12-04T06:14:08;10.40;;;6.53;;
11996;SDS011;6058;48.704;9.474;2023-12-04T06:16:36;10.43;;;5.97;;
11996;SDS011;6058;48.704;9.474;2023-12-04T06:19:03;10.77;;;5.87;;
11996;SDS011;6058;48.704;9.474;2023-12-04T06:21:30;13.43;;;8.27;;
11996;SDS011;6058;48.704;9.474;2023-12-04T06:23:58;10.60;;;5.20;;
11996;SDS011;6058;48.704;9.474;2023-12-04T06:26:27;9.90;;;6.40;;
11996;SDS011;6058;48.704;9.474;2023-12-04T06:28:54;10.97;;;5.63;;
11996;SDS011;6058;48.704;9.474;2023-12-04T06:31:21;9.53;;;5.83;;
11996;SDS011;6058;48.704;9.474;2023-12-04T06:33:49;10.80;;;6.60;;
11996;SDS011;6058;48.704;9.474;2023-12-04T06:36:16;9.87;;;6.03;;
11996;SDS011;6058;48.704;9.474;2023-12-04T06:38:45;9.77;;;5.90;;
11996;SDS011;6058;48.704;9.474;2023-12-04T06:41:14;10.70;;;5.90;;
11996;SDS011;6058;48.704;9.474;2023-12-04T06:43:44;10.23;;;6.97;;
11996;SDS011;6058;48.704;9.474;2023-12-04T06:46:11;11.90;;;6.90;;
11996;SDS011;6058;48.704;9.474;2023-12-04T06:48:40;9.83;;;5.73;;
11996;SDS011;6058;48.704;9.474;2023-12-04T06:51:07;8.93;;;5.70;;
11996;SDS011;6058;48.704;9.474;2023-12-04T06:53:34;10.40;;;6.40;;
11996;SDS011;6058;48.704;9.474;2023-12-04T06:56:03;9.93;;;5.60;;
11996;SDS011;6058;48.704;9.474;2023-12-04T06:58:30;9.37;;;6.17;;
11996;SDS011;6058;48.704;9.474;2023-12-04T07:00:59;9.60;;;6.10;;
11996;SDS011;6058;48.704;9.474;2023-12-04T07:03:27;10.23;;;6.13;;
11996;SDS011;6058;48.704;9.474;2023-12-04T07:05:54;13.40;;;7.03;;
11996;SDS011;6058;48.704;9.474;2023-12-04T07:08:21;15.53;;;7.87;;
11996;SDS011;6058;48.704;9.474;2023-12-04T07:10:48;10.40;;;6.67;;
11996;SDS011;6058;48.704;9.474;2023-12-04T07:13:15;11.67;;;6.90;;
11996;SDS011;6058;48.704;9.474;2023-12-04T07:15:42;10.83;;;6.10;;
11996;SDS011;6058;48.704;9.474;2023-12-04T07:18:11;11.40;;;6.83;;
11996;SDS011;6058;48.704;9.474;2023-12-04T07:20:38;8.30;;;6.07;;
11996;SDS011;6058;48.704;9.474;2023-12-04T07:23:05;13.37;;;6.50;;
11996;SDS011;6058;48.704;9.474;2023-12-04T07:25:32;11.23;;;6.73;;
11996;SDS011;6058;48.704;9.474;2023-12-04T07:27:59;11.77;;;7.77;;
11996;SDS011;6058;48.704;9.474;2023-12-04T07:30:27;9.10;;;4.73;;
11996;SDS011;6058;48.704;9.474;2023-12-04T07:32:54;11.03;;;5.90;;
11996;SDS011;6058;48.704;9.474;2023-12-04T07:35:22;8.80;;;6.37;;
11996;SDS011;6058;48.704;9.474;2023-12-04T07:37:49;11.13;;;6.60;;
11996;SDS011;6058;48.704;9.474;2023-12-04T07:40:17;8.33;;;5.97;;
11996;SDS011;6058;48.704;9.474;2023-12-04T07:42:46;11.33;;;5.73;;
11996;SDS011;6058;48.704;9.474;2023-12-04T07:45:13;9.10;;;5.60;;
11996;SDS011;6058;48.704;9.474;2023-12-04T07:47:41;13.40;;;7.27;;
11996;SDS011;6058;48.704;9.474;2023-12-04T07:50:08;11.77;;;6.93;;
11996;SDS011;6058;48.704;9.474;2023-12-04T07:52:36;12.20;;;7.33;;
11996;SDS011;6058;48.704;9.474;2023-12-04T07:55:04;13.63;;;7.80;;
11996;SDS011;6058;48.704;9.474;2023-12-04T07:57:31;11.13;;;6.27;;
11996;SDS011;6058;48.704;9.474;2023-12-04T07:59:58;14.13;;;7.43;;
11996;SDS011;6058;48.704;9.474;2023-12-04T08:02:25;11.50;;;6.97;;
11996;SDS011;6058;48.704;9.474;2023-12-04T08:04:53;12.13;;;7.60;;
11996;SDS011;6058;48.704;9.474;2023-12-04T08:07:20;13.37;;;7.87;;
11996;SDS011;6058;48.704;9.474;2023-12-04T08:09:48;14.30;;;10.67;;
11996;SDS011;6058;48.704;9.474;2023-12-04T08:12:15;15.20;;;10.73;;
11996;SDS011;6058;48.704;9.474;2023-12-04T08:14:43;12.50;;;7.43;;
11996;SDS011;6058;48.704;9.474;2023-12-04T08:17:12;13.67;;;8.80;;
11996;SDS011;6058;48.704;9.474;2023-12-04T08:19:39;12.17;;;7.57;;
11996;SDS011;6058;48.704;9.474;2023-12-04T08:22:07;16.10;;;11.80;;
11996;SDS011;6058;48.704;9.474;2023-12-04T08:24:34;15.40;;;8.27;;
11996;SDS011;6058;48.704;9.474;2023-12-04T08:27:02;13.23;;;7.80;;
11996;SDS011;6058;48.704;9.474;2023-12-04T08:29:29;11.43;;;7.00;;
11996;SDS011;6058;48.704;9.474;2023-12-04T08:31:57;16.10;;;10.07;;
11996;SDS011;6058;48.704;9.474;2023-12-04T08:34:24;12.77;;;8.80;;
11996;SDS011;6058;48.704;9.474;2023-12-04T08:36:51;11.30;;;9.60;;
11996;SDS011;6058;48.704;9.474;2023-12-04T08:39:18;14.63;;;7.63;;
11996;SDS011;6058;48.704;9.474;2023-12-04T08:41:45;11.77;;;7.57;;
11996;SDS011;6058;48.704;9.474;2023-12-04T08:44:14;12.07;;;8.83;;
11996;SDS011;6058;48.704;9.474;2023-12-04T08:46:41;13.80;;;9.20;;
11996;SDS011;6058;48.704;9.474;2023-12-04T08:49:08;11.50;;;8.33;;
11996;SDS011;6058;48.704;9.474;2023-12-04T08:51:35;13.67;;;9.33;;
11996;SDS011;6058;48.704;9.474;2023-12-04T08:54:03;14.47;;;8.67;;
11996;SDS011;6058;48.704;9.474;2023-12-04T08:56:30;12.37;;;7.00;;
11996;SDS011;6058;48.704;9.474;2023-12-04T08:58:57;12.00;;;7.43;;
11996;SDS011;6058;48.704;9.474;2023-12-04T09:01:25;10.97;;;7.90;;
11996;SDS011;6058;48.704;9.474;2023-12-04T09:03:52;14.27;;;8.57;;
11996;SDS011;6058;48.704;9.474;2023-12-04T09:06:21;11.10;;;7.27;;
11996;SDS011;6058;48.704;9.474;2023-12-04T09:08:48;10.37;;;6.93;;
11996;SDS011;6058;48.704;9.474;2023-12-04T09:11:15;13.87;;;8.90;;
11996;SDS011;6058;48.704;9.474;2023-12-04T09:13:42;15.80;;;9.23;;
11996;SDS011;6058;48.704;9.474;2023-12-04T09:16:09;13.13;;;7.90;;
11996;SDS011;6058;48.704;9.474;2023-12-04T09:18:38;10.30;;;6.30;;
11996;SDS011;6058;48.704;9.474;2023-12-04T09:21:05;11.07;;;7.70;;
11996;SDS011;6058;48.704;9.474;2023-12-04T09:23:33;14.00;;;8.03;;
11996;SDS011;6058;48.704;9.474;2023-12-04T09:26:00;13.90;;;8.70;;
11996;SDS011;6058;48.704;9.474;2023-12-04T09:28:27;13.03;;;8.53;;
11996;SDS011;6058;48.704;9.474;2023-12-04T09:30:54;16.83;;;9.13;;
11996;SDS011;6058;48.704;9.474;2023-12-04T09:33:21;15.30;;;8.20;;
11996;SDS011;6058;48.704;9.474;2023-12-04T09:35:50;14.03;;;8.20;;
11996;SDS011;6058;48.704;9.474;2023-12-04T09:38:17;15.53;;;8.37;;
11996;SDS011;6058;48.704;9.474;2023-12-04T09:40:44;13.50;;;8.47;;
11996;SDS011;6058;48.704;9.474;2023-12-04T09:43:11;12.90;;;8.03;;
11996;SDS011;6058;48.704;9.474;2023-12-04T09:45:39;13.80;;;8.43;;
11996;SDS011;6058;48.704;9.474;2023-12-04T09:48:06;15.40;;;8.43;;
11996;SDS011;6058;48.704;9.474;2023-12-04T09:50:34;16.73;;;8.73;;
11996;SDS011;6058;48.704;9.474;2023-12-04T09:53:04;12.90;;;8.47;;
11996;SDS011;6058;48.704;9.474;2023-12-04T09:55:34;14.50;;;8.07;;
11996;SDS011;6058;48.704;9.474;2023-12-04T09:58:01;8.97;;;6.20;;
11996;SDS011;6058;48.704;9.474;2023-12-04T10:00:29;11.83;;;7.77;;
11996;SDS011;6058;48.704;9.474;2023-12-04T10:02:57;18.07;;;8.50;;
11996;SDS011;6058;48.704;9.474;2023-12-04T10:05:25;11.53;;;7.43;;
11996;SDS011;6058;48.704;9.474;2023-12-04T10:07:52;15.50;;;8.60;;
11996;SDS011;6058;48.704;9.474;2023-12-04T10:10:20;13.27;;;8.50;;
11996;SDS011;6058;48.704;9.474;2023-12-04T10:12:47;15.60;;;8.20;;
11996;SDS011;6058;48.704;9.474;2023-12-04T10:15:14;14.80;;;8.73;;
11996;SDS011;6058;48.704;9.474;2023-12-04T10:17:43;19.00;;;10.37;;
11996;SDS011;6058;48.704;9.474;2023-12-04T10:20:19;16.27;;;9.33;;
11996;SDS011;6058;48.704;9.474;2023-12-04T10:22:52;16.30;;;9.20;;
11996;SDS011;6058;48.704;9.474;2023-12-04T10:25:21;15.50;;;8.37;;
11996;SDS011;6058;48.704;9.474;2023-12-04T10:27:50;13.77;;;8.17;;
11996;SDS011;6058;48.704;9.474;2023-12-04T10:30:24;15.80;;;8.33;;
11996;SDS011;6058;48.704;9.474;2023-12-04T10:32:55;13.50;;;8.77;;
11996;SDS011;6058;48.704;9.474;2023-12-04T10:35:25;16.97;;;8.90;;
11996;SDS011;6058;48.704;9.474;2023-12-04T10:37:53;12.90;;;8.80;;
11996;SDS011;6058;48.704;9.474;2023-12-04T10:40:25;14.07;;;8.53;;
11996;SDS011;6058;48.704;9.474;2023-12-04T10:43:09;16.40;;;9.17;;
11996;SDS011;6058;48.704;9.474;2023-12-04T10:45:37;13.43;;;7.40;;
11996;SDS011;6058;48.704;9.474;2023-12-04T10:48:04;14.10;;;8.63;;
11996;SDS011;6058;48.704;9.474;2023-12-04T10:50:31;15.47;;;9.03;;
11996;SDS011;6058;48.704;9.474;2023-12-04T10:52:59;15.43;;;9.23;;
11996;SDS011;6058;48.704;9.474;2023-12-04T10:55:28;15.73;;;9.37;;
11996;SDS011;6058;48.704;9.474;2023-12-04T10:57:55;16.63;;;8.83;;
11996;SDS011;6058;48.704;9.474;2023-12-04T11:00:23;14.83;;;8.43;;
11996;SDS011;6058;48.704;9.474;2023-12-04T11:02:50;14.93;;;8.60;;
11996;SDS011;6058;48.704;9.474;2023-12-04T11:05:20;14.47;;;8.07;;
11996;SDS011;6058;48.704;9.474;2023-12-04T11:07:50;15.90;;;10.07;;
11996;SDS011;6058;48.704;9.474;2023-12-04T11:10:18;13.73;;;8.20;;
11996;SDS011;6058;48.704;9.474;2023-12-04T11:12:51;12.10;;;7.80;;
11996;SDS011;6058;48.704;9.474;2023-12-04T11:15:20;15.73;;;8.07;;
11996;SDS011;6058;48.704;9.474;2023-12-04T11:17:51;13.00;;;8.30;;
11996;SDS011;6058;48.704;9.474;2023-12-04T11:20:19;14.13;;;8.37;;
11996;SDS011;6058;48.704;9.474;2023-12-04T11:22:47;14.20;;;8.33;;
11996;SDS011;6058;48.704;9.474;2023-12-04T11:25:15;13.83;;;8.47;;
11996;SDS011;6058;48.704;9.474;2023-12-04T11:27:43;16.67;;;9.60;;
11996;SDS011;6058;48.704;9.474;2023-12-04T11:30:12;14.40;;;8.90;;
11996;SDS011;6058;48.704;9.474;2023-12-04T11:32:44;16.73;;;8.77;;
11996;SDS011;6058;48.704;9.474;2023-12-04T11:35:12;17.00;;;9.70;;
11996;SDS011;6058;48.704;9.474;2023-12-04T11:37:40;14.97;;;9.27;;
11996;SDS011;6058;48.704;9.474;2023-12-04T11:40:09;15.83;;;10.13;;
11996;SDS011;6058;48.704;9.474;2023-12-04T11:42:37;14.80;;;9.30;;
11996;SDS011;6058;48.704;9.474;2023-12-04T11:45:05;15.73;;;9.63;;
11996;SDS011;6058;48.704;9.474;2023-12-04T11:50:16;16.67;;;9.63;;
11996;SDS011;6058;48.704;9.474;2023-12-04T11:52:45;18.57;;;10.17;;
11996;SDS011;6058;48.704;9.474;2023-12-04T11:55:15;17.50;;;10.70;;
11996;SDS011;6058;48.704;9.474;2023-12-04T11:57:42;13.57;;;7.03;;
11996;SDS011;6058;48.704;9.474;2023-12-04T12:00:11;18.60;;;10.23;;
11996;SDS011;6058;48.704;9.474;2023-12-04T12:02:46;23.67;;;11.20;;
11996;SDS011;6058;48.704;9.474;2023-12-04T12:05:13;17.80;;;10.10;;
11996;SDS011;6058;48.704;9.474;2023-12-04T12:07:42;17.43;;;9.37;;
11996;SDS011;6058;48.704;9.474;2023-12-04T12:10:10;23.77;;;11.27;;
11996;SDS011;6058;48.704;9.474;2023-12-04T12:12:38;17.33;;;10.60;;
11996;SDS011;6058;48.704;9.474;2023-12-04T12:15:07;20.83;;;11.43;;
11996;SDS011;6058;48.704;9.474;2023-12-04T12:17:35;21.10;;;11.83;;
11996;SDS011;6058;48.704;9.474;2023-12-04T12:20:02;18.50;;;10.23;;
11996;SDS011;6058;48.704;9.474;2023-12-04T12:22:31;18.83;;;10.13;;
11996;SDS011;6058;48.704;9.474;2023-12-04T12:25:00;18.53;;;10.67;;
11996;SDS011;6058;48.704;9.474;2023-12-04T12:27:27;19.07;;;10.47;;
11996;SDS011;6058;48.704;9.474;2023-12-04T12:29:57;19.17;;;10.70;;
11996;SDS011;6058;48.704;9.474;2023-12-04T12:32:24;22.00;;;13.50;;
11996;SDS011;6058;48.704;9.474;2023-12-04T12:34:52;21.03;;;11.73;;
11996;SDS011;6058;48.704;9.474;2023-12-04T12:37:20;16.57;;;10.23;;
11996;SDS011;6058;48.704;9.474;2023-12-04T12:39:47;21.20;;;11.33;;
11996;SDS011;6058;48.704;9.474;2023-12-04T12:42:21;18.23;;;10.80;;
11996;SDS011;6058;48.704;9.474;2023-12-04T12:44:49;22.03;;;11.77;;
11996;SDS011;6058;48.704;9.474;2023-12-04T12:47:16;20.73;;;11.90;;
11996;SDS011;6058;48.704;9.474;2023-12-04T12:49:43;18.23;;;10.20;;
11996;SDS011;6058;48.704;9.474;2023-12-04T12:52:10;18.80;;;11.43;;
11996;SDS011;6058;48.704;9.474;2023-12-04T12:54:37;17.83;;;10.67;;
11996;SDS011;6058;48.704;9.474;2023-12-04T12:57:05;22.23;;;10.93;;
11996;SDS011;6058;48.704;9.474;2023-12-04T12:59:34;16.43;;;9.47;;
11996;SDS011;6058;48.704;9.474;2023-12-04T13:02:01;18.43;;;10.93;;
11996;SDS011;6058;48.704;9.474;2023-12-04T13:04:33;20.73;;;11.50;;
11996;SDS011;6058;48.704;9.474;2023-12-04T13:07:00;19.57;;;10.43;;
11996;SDS011;6058;48.704;9.474;2023-12-04T13:09:28;20.83;;;11.93;;
11996;SDS011;6058;48.704;9.474;2023-12-04T13:11:55;22.80;;;12.37;;
11996;SDS011;6058;48.704;9.474;2023-12-04T13:14:23;21.47;;;11.60;;
11996;SDS011;6058;48.704;9.474;2023-12-04T13:16:51;20.47;;;11.27;;
11996;SDS011;6058;48.704;9.474;2023-12-04T13:19:19;22.50;;;11.10;;
11996;SDS011;6058;48.704;9.474;2023-12-04T13:21:47;20.50;;;10.93;;
11996;SDS011;6058;48.704;9.474;2023-12-04T13:24:14;16.87;;;10.20;;
11996;SDS011;6058;48.704;9.474;2023-12-04T13:26:41;18.57;;;10.93;;
11996;SDS011;6058;48.704;9.474;2023-12-04T13:29:08;19.67;;;10.90;;
11996;SDS011;6058;48.704;9.474;2023-12-04T13:31:35;16.47;;;10.10;;
11996;SDS011;6058;48.704;9.474;2023-12-04T13:34:03;17.37;;;11.67;;
11996;SDS011;6058;48.704;9.474;2023-12-04T13:36:31;20.13;;;11.57;;
11996;SDS011;6058;48.704;9.474;2023-12-04T13:38:59;21.80;;;12.30;;
11996;SDS011;6058;48.704;9.474;2023-12-04T13:41:26;19.03;;;10.07;;
11996;SDS011;6058;48.704;9.474;2023-12-04T13:44:11;19.47;;;10.70;;
11996;SDS011;6058;48.704;9.474;2023-12-04T13:46:40;18.50;;;10.60;;
11996;SDS011;6058;48.704;9.474;2023-12-04T13:49:08;20.13;;;11.20;;
11996;SDS011;6058;48.704;9.474;2023-12-04T13:51:36;15.60;;;9.30;;
11996;SDS011;6058;48.704;9.474;2023-12-04T13:54:05;18.23;;;10.07;;
11996;SDS011;6058;48.704;9.474;2023-12-04T13:56:45;19.23;;;10.73;;
11996;SDS011;6058;48.704;9.474;2023-12-04T13:59:18;19.80;;;11.80;;
11996;SDS011;6058;48.704;9.474;2023-12-04T14:01:45;19.30;;;12.07;;
11996;SDS011;6058;48.704;9.474;2023-12-04T14:04:14;20.13;;;10.23;;
11996;SDS011;6058;48.704;9.474;2023-12-04T14:06:41;19.00;;;9.97;;
11996;SDS011;6058;48.704;9.474;2023-12-04T14:09:08;20.10;;;12.27;;
11996;SDS011;6058;48.704;9.474;2023-12-04T14:11:39;23.97;;;12.13;;
11996;SDS011;6058;48.704;9.474;2023-12-04T14:14:06;20.30;;;11.60;;
11996;SDS011;6058;48.704;9.474;2023-12-04T14:16:33;18.07;;;11.30;;
11996;SDS011;6058;48.704;9.474;2023-12-04T14:19:01;18.90;;;11.33;;
11996;SDS011;6058;48.704;9.474;2023-12-04T14:21:29;16.10;;;10.10;;
11996;SDS011;6058;48.704;9.474;2023-12-04T14:23:56;20.57;;;12.17;;
11996;SDS011;6058;48.704;9.474;2023-12-04T14:26:23;20.77;;;11.37;;
11996;SDS011;6058;48.704;9.474;2023-12-04T14:28:50;18.27;;;11.03;;
11996;SDS011;6058;48.704;9.474;2023-12-04T14:31:18;20.07;;;11.53;;
11996;SDS011;6058;48.704;9.474;2023-12-04T14:33:45;21.10;;;11.13;;
11996;SDS011;6058;48.704;9.474;2023-12-04T14:36:12;19.13;;;11.67;;
11996;SDS011;6058;48.704;9.474;2023-12-04T14:38:41;21.33;;;11.70;;
11996;SDS011;6058;48.704;9.474;2023-12-04T14:41:08;20.63;;;10.83;;
11996;SDS011;6058;48.704;9.474;2023-12-04T14:43:36;22.33;;;11.07;;
11996;SDS011;6058;48.704;9.474;2023-12-04T14:46:03;17.43;;;10.93;;
11996;SDS011;6058;48.704;9.474;2023-12-04T14:48:33;19.80;;;9.93;;
11996;SDS011;6058;48.704;9.474;2023-12-04T14:51:01;21.43;;;11.87;;
11996;SDS011;6058;48.704;9.474;2023-12-04T14:53:29;21.93;;;12.90;;